Forside
METAR-TAF:

METAR-TAF

Lufthavne :

Frankfort, Michigan, USA

Breddekreds: 44-37-30N, længdekreds: 086-12-02W, højde: 193 m

Aktuelle vejr

Denne rapport blev lavet for 5 minutter siden, kl. 13:35 UTC
Vind 10 kt fra nordnordvest med vindstød på up til 15 kt
Temperatur 5°C
Fugtighed 75%
Tryk 1026 hPa
Sigt: 16.1 km
Spredte skyer i en højde af 1700 ft
Brudte skyer i en højde af 2200 ft
Overskyet i en højde af 6000 ft

METAR: KFKS 111335Z AUTO 33010G15KT 10SM SCT017 BKN022 OVC060 05/01 A3030 RMK AO2 T00510013

Tid: 09:40 (13:40 UTC)


TAF: fraværende

Vejrobservationer og prognoser fra mere end 4000 lufthavne (METAR og TAF).

De gule og røde prikker repræsenterer de meteorologiske stationer.

Flyt musen over at se navnet på stationen.

Så klik over at se vejr observationer og prognoser.

At skifte det kort: Klik på de grønne knapper med et sort kors for at zoome ind; på den grønne knap med en bindestreg for at zoome ud; eller på de grønne pile for tilstødende kort.


METAR-TAF: